Time;durP1;ratioP1;P1;durP2;ratioP2;P2;SDS_P1;SDS_P2;PMS_P1;PMS_P2;Temp;Humidity;BMP_temperature;BMP_pressure;BME280_temperature;BME280_humidity;BME280_pressure;Samples;Min_cycle;Max_cycle;Signal;HPM_P1;HPM_P2
2023/10/30 07:34:46;;;;;;;;;4.67;3.00;;;;;;;;6261092;22;74184;-72
2023/10/30 07:37:11;;;;;;;;;4.33;4.00;;;;;;;;6276189;22;45317;-73
2023/10/30 07:39:37;;;;;;;;;7.33;6.33;;;;;;;;6249464;22;45272;-72
2023/10/30 07:42:02;;;;;;;;;7.33;4.00;;;;;;;;6274631;22;45409;-72
2023/10/30 07:44:27;;;;;;;;;5.00;5.00;;;;;;;;6248373;22;45544;-72
2023/10/30 07:46:52;;;;;;;;;4.00;4.00;;;;;;;;6275850;22;45255;-72
2023/10/30 07:49:17;;;;;;;;;5.00;5.00;;;;;;;;6248188;22;45156;-72
2023/10/30 07:51:43;;;;;;;;;6.67;6.00;;;;;;;;6276497;22;45262;-72
2023/10/30 07:54:08;;;;;;;;;6.00;5.33;;;;;;;;6275099;22;46720;-72
2023/10/30 07:56:33;;;;;;;;;5.00;5.00;;;;;;;;6248591;22;45304;-73
2023/10/30 07:58:58;;;;;;;;;7.67;6.00;;;;;;;;6276158;22;45247;-73
2023/10/30 08:01:24;;;;;;;;;7.00;6.00;;;;;;;;6276535;22;45153;-76
2023/10/30 08:03:49;;;;;;;;;7.00;5.67;;;;;;;;6275600;22;45624;-74
2023/10/30 08:06:14;;;;;;;;;8.67;8.00;;;;;;;;6277641;22;45176;-73
2023/10/30 08:08:39;;;;;;;;;5.00;5.00;;;;;;;;6276885;22;45257;-74
2023/10/30 08:11:05;;;;;;;;;5.00;5.00;;;;;;;;6276900;22;45121;-73
2023/10/30 08:13:31;;;;;;;;;4.00;3.00;;;;;;;;6278708;22;45165;-73
2023/10/30 08:15:56;;;;;;;;;4.67;4.67;;;;;;;;6275562;22;45210;-74
2023/10/30 08:18:21;;;;;;;;;5.00;4.00;;;;;;;;6276243;22;45398;-73
2023/10/30 08:20:46;;;;;;;;;3.33;2.00;;;;;;;;6275690;22;45446;-73
2023/10/30 08:23:11;;;;;;;;;2.00;1.00;;;;;;;;6276241;22;45556;-73
2023/10/30 08:25:37;;;;;;;;;2.00;1.00;;;;;;;;6276160;22;45769;-73
2023/10/30 08:28:02;;;;;;;;;4.00;1.33;;;;;;;;6276427;22;45224;-72
2023/10/30 08:30:27;;;;;;;;;2.00;2.00;;;;;;;;6276252;22;45156;-73
2023/10/30 08:32:53;;;;;;;;;1.67;1.67;;;;;;;;6274943;22;45267;-73
2023/10/30 08:35:18;;;;;;;;;3.00;1.33;;;;;;;;6276832;22;45220;-76
2023/10/30 08:37:43;;;;;;;;;2.67;2.67;;;;;;;;6275582;22;45205;-75
2023/10/30 08:40:09;;;;;;;;;6.00;5.00;;;;;;;;6276683;22;45406;-75
2023/10/30 08:42:34;;;;;;;;;3.00;3.00;;;;;;;;6275428;22;45484;-75
2023/10/30 08:44:59;;;;;;;;;4.00;3.00;;;;;;;;6276800;22;45378;-73
2023/10/30 08:47:24;;;;;;;;;5.00;3.00;;;;;;;;6276764;22;45323;-74
2023/10/30 08:49:49;;;;;;;;;5.67;5.33;;;;;;;;6277022;22;45278;-74
2023/10/30 08:52:15;;;;;;;;;9.33;6.00;;;;;;;;6275082;22;45349;-74
2023/10/30 08:54:43;;;;;;;;;3.33;3.33;;;;;;;;6277867;22;45587;-73
2023/10/30 08:57:08;;;;;;;;;3.00;3.00;;;;;;;;6278640;22;45237;-74
2023/10/30 08:59:38;;;;;;;;;5.33;4.33;;;;;;;;6275196;22;45239;-74
2023/10/30 09:02:03;;;;;;;;;3.00;3.00;;;;;;;;6275642;22;46117;-73
2023/10/30 09:04:28;;;;;;;;;5.00;5.00;;;;;;;;6275349;22;45332;-73
2023/10/30 09:06:54;;;;;;;;;6.00;6.00;;;;;;;;6276871;22;45343;-74
2023/10/30 09:09:19;;;;;;;;;6.00;6.00;;;;;;;;6276353;22;45587;-72
2023/10/30 09:11:45;;;;;;;;;4.67;3.33;;;;;;;;6276037;22;45335;-73
2023/10/30 09:14:10;;;;;;;;;6.00;6.00;;;;;;;;6275312;22;45204;-73
2023/10/30 09:16:35;;;;;;;;;6.00;6.00;;;;;;;;6275899;22;45520;-72
2023/10/30 09:19:00;;;;;;;;;4.00;4.00;;;;;;;;6275569;22;45394;-73
2023/10/30 09:21:25;;;;;;;;;6.67;5.00;;;;;;;;6274926;22;45631;-73
2023/10/30 09:23:52;;;;;;;;;4.00;4.00;;;;;;;;6276222;22;45295;-73
2023/10/30 09:26:17;;;;;;;;;7.33;6.33;;;;;;;;6274391;22;45648;-72
2023/10/30 09:28:42;;;;;;;;;7.00;5.67;;;;;;;;6245113;22;46803;-72
2023/10/30 09:31:07;;;;;;;;;8.00;6.67;;;;;;;;6271450;22;45758;-72
2023/10/30 09:33:33;;;;;;;;;7.00;5.67;;;;;;;;6267396;22;45813;-73
2023/10/30 09:35:58;;;;;;;;;9.00;8.00;;;;;;;;6245386;22;45634;-73
2023/10/30 09:38:25;;;;;;;;;7.67;7.67;;;;;;;;6243780;22;45243;-73
2023/10/30 09:40:58;;;;;;;;;7.00;7.00;;;;;;;;6242221;22;47130;-74
2023/10/30 09:43:26;;;;;;;;;7.67;7.33;;;;;;;;6244695;22;45278;-75
2023/10/30 09:45:53;;;;;;;;;9.00;6.00;;;;;;;;6245827;22;45282;-74
2023/10/30 09:48:18;;;;;;;;;6.33;6.33;;;;;;;;6243831;22;45278;-74
2023/10/30 09:50:44;;;;;;;;;9.00;7.00;;;;;;;;6241527;22;46906;-75
2023/10/30 09:53:10;;;;;;;;;7.33;6.67;;;;;;;;6244257;22;45360;-75
2023/10/30 09:55:36;;;;;;;;;9.67;5.00;;;;;;;;6245455;22;45379;-75
2023/10/30 09:58:01;;;;;;;;;6.67;5.00;;;;;;;;6244422;22;45037;-75
2023/10/30 10:00:27;;;;;;;;;6.00;4.33;;;;;;;;6244014;22;45351;-75
2023/10/30 10:02:52;;;;;;;;;4.00;4.00;;;;;;;;6244430;22;45318;-74
2023/10/30 10:05:18;;;;;;;;;4.00;4.00;;;;;;;;6244618;22;45339;-75
2023/10/30 10:07:43;;;;;;;;;7.33;4.33;;;;;;;;6244681;22;45345;-74
2023/10/30 10:10:09;;;;;;;;;4.00;4.00;;;;;;;;6242003;22;46736;-75
2023/10/30 10:12:34;;;;;;;;;7.67;5.00;;;;;;;;6246465;22;45436;-75
2023/10/30 10:15:03;;;;;;;;;7.67;7.67;;;;;;;;6247079;22;45345;-75
2023/10/30 10:17:28;;;;;;;;;7.00;7.00;;;;;;;;6247883;22;45383;-74
2023/10/30 10:19:53;;;;;;;;;6.33;6.33;;;;;;;;6248226;22;45514;-74
2023/10/30 10:22:29;;;;;;;;;23.00;19.50;;;;;;;;6245647;22;45248;-74
2023/10/30 10:24:55;;;;;;;;;35.50;29.25;;;;;;;;6246150;22;45301;-74
2023/10/30 10:27:20;;;;;;;;;14.00;13.00;;;;;;;;6241945;22;46129;-74
2023/10/30 10:29:52;;;;;;;;;8.00;7.67;;;;;;;;6245939;22;46222;-74
2023/10/30 10:32:17;;;;;;;;;15.67;13.67;;;;;;;;6245207;22;45309;-74
2023/10/30 10:34:42;;;;;;;;;18.75;14.00;;;;;;;;6269582;22;45283;-74
2023/10/30 10:37:16;;;;;;;;;13.75;13.75;;;;;;;;6274994;22;45512;-74
2023/10/30 10:39:46;;;;;;;;;8.00;8.00;;;;;;;;6276466;22;45374;-74
2023/10/30 10:42:11;;;;;;;;;13.00;9.33;;;;;;;;6276011;22;45343;-74
2023/10/30 10:44:37;;;;;;;;;12.33;12.33;;;;;;;;6276658;22;45237;-74
2023/10/30 10:47:03;;;;;;;;;11.33;10.00;;;;;;;;6277723;22;45272;-74
2023/10/30 10:49:29;;;;;;;;;11.67;9.67;;;;;;;;6248644;22;46854;-74
2023/10/30 10:51:55;;;;;;;;;12.67;11.00;;;;;;;;6276000;22;45247;-74
2023/10/30 10:54:26;;;;;;;;;10.00;8.00;;;;;;;;6248783;22;45245;-74
2023/10/30 10:56:53;;;;;;;;;51.50;44.00;;;;;;;;6276938;22;45425;-74
2023/10/30 10:59:20;;;;;;;;;44.75;37.00;;;;;;;;6276757;22;45488;-72
2023/10/30 11:01:48;;;;;;;;;36.75;34.00;;;;;;;;6278222;22;45240;-73
2023/10/30 11:04:14;;;;;;;;;36.75;33.75;;;;;;;;6278277;22;45161;-72
2023/10/30 11:06:45;;;;;;;;;143.25;134.25;;;;;;;;6278425;22;45398;-73
2023/10/30 11:09:14;;;;;;;;;43.25;37.00;;;;;;;;6276983;22;46154;-73
2023/10/30 11:11:55;;;;;;;;;21.67;18.33;;;;;;;;6277543;22;45379;-74
2023/10/30 11:14:38;;;;;;;;;70.00;56.50;;;;;;;;6277861;22;45186;-73
2023/10/30 11:17:05;;;;;;;;;13.33;13.33;;;;;;;;6249486;22;45803;-73
2023/10/30 11:19:32;;;;;;;;;49.50;41.00;;;;;;;;6277263;22;45880;-73
2023/10/30 11:21:59;;;;;;;;;10.00;10.00;;;;;;;;6275917;22;45343;-73
2023/10/30 11:24:34;;;;;;;;;90.50;87.00;;;;;;;;6276096;22;45541;-74
2023/10/30 11:26:59;;;;;;;;;36.75;31.75;;;;;;;;6249927;22;45919;-73
2023/10/30 11:29:45;;;;;;;;;19.00;17.00;;;;;;;;6277532;22;46136;-73
2023/10/30 11:32:14;;;;;;;;;22.33;20.67;;;;;;;;6277609;22;45150;-73
2023/10/30 11:34:40;;;;;;;;;13.00;12.00;;;;;;;;6243053;22;45286;-74
2023/10/30 11:37:09;;;;;;;;;10.00;8.33;;;;;;;;6245906;22;45528;-74
2023/10/30 11:39:35;;;;;;;;;12.67;12.00;;;;;;;;6246712;22;46161;-74
2023/10/30 11:42:00;;;;;;;;;14.00;12.33;;;;;;;;6247676;22;45474;-74
2023/10/30 11:44:32;;;;;;;;;13.00;12.67;;;;;;;;6248853;22;45349;-74
2023/10/30 11:46:57;;;;;;;;;11.67;11.67;;;;;;;;6250342;22;45373;-74
2023/10/30 11:49:28;;;;;;;;;11.33;11.00;;;;;;;;6248863;22;45202;-75
2023/10/30 11:51:54;;;;;;;;;13.33;12.67;;;;;;;;6246247;22;45286;-75
2023/10/30 11:54:23;;;;;;;;;17.00;12.33;;;;;;;;6243847;22;45277;-74
2023/10/30 11:56:49;;;;;;;;;9.67;9.67;;;;;;;;6244872;22;45237;-73
2023/10/30 11:59:18;;;;;;;;;16.33;16.00;;;;;;;;6245143;22;46508;-73
2023/10/30 12:01:45;;;;;;;;;17.33;15.33;;;;;;;;6246967;22;45314;-74
2023/10/30 12:04:10;;;;;;;;;16.00;15.00;;;;;;;;6246271;22;45210;-73
2023/10/30 12:06:35;;;;;;;;;16.67;16.33;;;;;;;;6246783;22;45209;-73
2023/10/30 12:09:00;;;;;;;;;13.67;12.67;;;;;;;;6243466;22;46755;-74
2023/10/30 12:11:26;;;;;;;;;18.00;16.00;;;;;;;;6246416;22;45142;-73
2023/10/30 12:13:51;;;;;;;;;16.67;15.00;;;;;;;;6246468;22;45226;-73
2023/10/30 12:16:17;;;;;;;;;18.00;16.33;;;;;;;;6246758;22;45186;-74
2023/10/30 12:18:42;;;;;;;;;17.33;16.33;;;;;;;;6245888;22;45284;-74
2023/10/30 12:21:07;;;;;;;;;19.00;17.67;;;;;;;;6246908;22;45160;-75
2023/10/30 12:23:32;;;;;;;;;20.67;19.00;;;;;;;;6244621;22;45095;-76
2023/10/30 12:26:07;;;;;;;;;13.67;13.00;;;;;;;;6248116;22;45491;-75
2023/10/30 12:28:36;;;;;;;;;19.33;16.67;;;;;;;;6247202;22;45207;-74
2023/10/30 12:31:14;;;;;;;;;16.33;15.33;;;;;;;;6246209;22;45207;-73
2023/10/30 12:33:40;;;;;;;;;14.00;14.00;;;;;;;;6255371;22;45223;-75
2023/10/30 12:36:05;;;;;;;;;17.67;17.00;;;;;;;;6277353;22;45111;-75
2023/10/30 12:38:30;;;;;;;;;16.67;15.67;;;;;;;;6249326;22;45579;-75
2023/10/30 12:40:56;;;;;;;;;13.00;12.33;;;;;;;;6249391;22;45652;-74
2023/10/30 12:43:21;;;;;;;;;14.00;14.00;;;;;;;;6277661;22;45159;-73
2023/10/30 12:45:46;;;;;;;;;14.33;12.00;;;;;;;;6276718;22;45225;-74
2023/10/30 12:48:11;;;;;;;;;13.67;11.33;;;;;;;;6248285;22;47730;-73
2023/10/30 12:50:37;;;;;;;;;11.00;11.00;;;;;;;;6277061;22;45283;-73
2023/10/30 12:53:02;;;;;;;;;6.33;6.33;;;;;;;;6277737;22;45223;-73
2023/10/30 12:55:27;;;;;;;;;8.00;5.00;;;;;;;;6248954;22;45210;-73
2023/10/30 12:57:53;;;;;;;;;2.00;2.00;;;;;;;;6277541;22;44830;-73
2023/10/30 13:00:19;;;;;;;;;2.33;2.33;;;;;;;;6277544;22;45209;-73
2023/10/30 13:02:44;;;;;;;;;1.67;1.00;;;;;;;;6248704;22;45440;-73
2023/10/30 13:05:11;;;;;;;;;2.33;2.00;;;;;;;;6276127;22;45448;-72
2023/10/30 13:07:37;;;;;;;;;2.00;2.00;;;;;;;;6277594;22;45264;-72
2023/10/30 13:10:02;;;;;;;;;3.00;3.00;;;;;;;;6248974;22;45737;-73
2023/10/30 13:12:28;;;;;;;;;4.00;2.00;;;;;;;;6277968;22;45178;-73
2023/10/30 13:14:54;;;;;;;;;2.33;1.00;;;;;;;;6277933;22;45252;-73
2023/10/30 13:17:19;;;;;;;;;1.00;1.00;;;;;;;;6275516;22;45576;-72
2023/10/30 13:19:44;;;;;;;;;1.33;1.33;;;;;;;;6277710;22;45220;-72
2023/10/30 13:22:09;;;;;;;;;2.00;2.00;;;;;;;;6277842;22;45134;-72
2023/10/30 13:24:35;;;;;;;;;1.00;0.00;;;;;;;;6249703;22;45466;-74
2023/10/30 13:27:00;;;;;;;;;2.00;1.00;;;;;;;;6276733;22;45213;-72
2023/10/30 13:29:27;;;;;;;;;1.00;1.00;;;;;;;;6277138;22;45098;-72
2023/10/30 13:31:52;;;;;;;;;1.00;1.00;;;;;;;;6277377;22;45180;-72
2023/10/30 13:34:18;;;;;;;;;1.00;1.00;;;;;;;;6275773;22;45200;-72
2023/10/30 13:36:44;;;;;;;;;0.00;0.00;;;;;;;;6275966;22;45242;-73
2023/10/30 13:39:09;;;;;;;;;6.33;6.00;;;;;;;;6276402;22;45159;-72
2023/10/30 13:41:34;;;;;;;;;1.67;1.67;;;;;;;;6277602;22;45506;-72
2023/10/30 13:43:59;;;;;;;;;1.00;1.00;;;;;;;;6276608;22;45240;-72
2023/10/30 13:46:25;;;;;;;;;1.00;1.00;;;;;;;;6276986;22;45344;-72
2023/10/30 13:48:50;;;;;;;;;3.00;3.00;;;;;;;;6275570;22;45354;-73
2023/10/30 13:51:16;;;;;;;;;2.00;2.00;;;;;;;;6277319;22;45291;-74
2023/10/30 13:53:41;;;;;;;;;3.33;1.00;;;;;;;;6276969;22;45201;-74
2023/10/30 13:56:06;;;;;;;;;1.33;1.00;;;;;;;;6279008;22;45280;-74
2023/10/30 13:58:32;;;;;;;;;2.00;2.00;;;;;;;;6279882;22;45268;-75
2023/10/30 14:00:57;;;;;;;;;2.00;2.00;;;;;;;;6249307;22;45349;-74
2023/10/30 14:03:22;;;;;;;;;3.00;2.00;;;;;;;;6276474;22;45219;-74
2023/10/30 14:05:48;;;;;;;;;2.00;2.00;;;;;;;;6277433;22;45366;-74
2023/10/30 14:08:13;;;;;;;;;3.67;2.00;;;;;;;;6277039;22;45262;-74
2023/10/30 14:10:38;;;;;;;;;1.00;1.00;;;;;;;;6277674;22;44697;-75
2023/10/30 14:13:03;;;;;;;;;3.00;2.25;;;;;;;;6277123;22;45215;-74
2023/10/30 14:15:28;;;;;;;;;4.00;2.33;;;;;;;;6249799;22;45428;-78
2023/10/30 14:17:54;;;;;;;;;4.00;2.67;;;;;;;;6276592;22;45652;-74
2023/10/30 14:20:19;;;;;;;;;4.00;4.00;;;;;;;;6277649;22;45217;-72
2023/10/30 14:22:44;;;;;;;;;3.33;3.33;;;;;;;;6276932;22;45723;-72
2023/10/30 14:25:09;;;;;;;;;3.33;3.33;;;;;;;;6249651;22;47880;-73
2023/10/30 14:27:34;;;;;;;;;25.00;18.67;;;;;;;;6277415;22;45156;-72
2023/10/30 14:30:00;;;;;;;;;7.00;3.67;;;;;;;;6277339;22;44840;-72
2023/10/30 14:32:25;;;;;;;;;6.33;4.00;;;;;;;;6276460;22;45402;-72
2023/10/30 14:34:50;;;;;;;;;1.00;1.00;;;;;;;;6274317;22;45232;-72
2023/10/30 14:37:15;;;;;;;;;3.00;1.67;;;;;;;;6276859;22;45164;-71
2023/10/30 14:39:41;;;;;;;;;2.00;2.00;;;;;;;;6276123;22;45198;-72
2023/10/30 14:42:10;;;;;;;;;4.00;2.00;;;;;;;;6276933;22;45263;-72
2023/10/30 14:44:36;;;;;;;;;3.67;3.00;;;;;;;;6275738;22;46982;-73
2023/10/30 14:47:01;;;;;;;;;2.00;2.00;;;;;;;;6249047;22;44904;-73
2023/10/30 14:49:26;;;;;;;;;2.00;1.00;;;;;;;;6276471;22;45215;-73
2023/10/30 14:51:51;;;;;;;;;3.67;2.67;;;;;;;;6277247;22;45207;-73
2023/10/30 14:54:16;;;;;;;;;3.00;2.33;;;;;;;;6276814;22;46048;-73
2023/10/30 14:56:42;;;;;;;;;1.00;1.00;;;;;;;;6277327;22;45312;-73
2023/10/30 14:59:08;;;;;;;;;2.00;2.00;;;;;;;;6278421;22;45286;-73
2023/10/30 15:01:33;;;;;;;;;3.00;1.67;;;;;;;;6278430;22;45500;-73
2023/10/30 15:03:58;;;;;;;;;1.67;1.67;;;;;;;;6276935;22;46212;-73
2023/10/30 15:06:23;;;;;;;;;3.67;1.67;;;;;;;;6250886;22;45232;-73
2023/10/30 15:08:49;;;;;;;;;2.33;2.33;;;;;;;;6278199;22;45383;-73
2023/10/30 15:11:14;;;;;;;;;3.00;3.00;;;;;;;;6278608;22;45227;-73
2023/10/30 15:13:40;;;;;;;;;0.33;0.00;;;;;;;;6278251;22;46435;-73
2023/10/30 15:16:06;;;;;;;;;4.00;3.00;;;;;;;;6250661;22;44751;-73
2023/10/30 15:18:31;;;;;;;;;2.67;2.00;;;;;;;;6278602;22;45173;-73
2023/10/30 15:20:56;;;;;;;;;3.00;2.67;;;;;;;;6279341;22;45232;-73
2023/10/30 15:23:21;;;;;;;;;5.00;2.00;;;;;;;;6280349;22;45382;-73
2023/10/30 15:25:46;;;;;;;;;2.00;2.00;;;;;;;;6279572;22;45213;-72
2023/10/30 15:28:13;;;;;;;;;2.00;1.00;;;;;;;;6278027;22;45330;-73
2023/10/30 15:30:38;;;;;;;;;3.33;2.00;;;;;;;;6277833;22;45458;-72
2023/10/30 15:33:03;;;;;;;;;1.67;1.67;;;;;;;;6248414;22;46847;-72
2023/10/30 15:35:29;;;;;;;;;4.33;2.67;;;;;;;;6278080;22;44731;-73
2023/10/30 15:37:54;;;;;;;;;1.00;1.00;;;;;;;;6278188;22;45176;-72
2023/10/30 15:40:19;;;;;;;;;3.00;3.00;;;;;;;;6278176;22;45219;-72
2023/10/30 15:42:45;;;;;;;;;8.33;4.00;;;;;;;;6278006;22;45214;-72
2023/10/30 15:45:10;;;;;;;;;3.00;3.00;;;;;;;;6278049;22;45379;-72
2023/10/30 15:47:37;;;;;;;;;3.67;2.67;;;;;;;;6275436;22;45267;-72
2023/10/30 15:50:02;;;;;;;;;0.67;0.33;;;;;;;;6278266;22;45184;-72
2023/10/30 15:52:27;;;;;;;;;3.00;2.33;;;;;;;;6277833;22;46088;-71
2023/10/30 15:54:52;;;;;;;;;4.00;4.00;;;;;;;;6278195;22;45178;-71
2023/10/30 15:57:19;;;;;;;;;4.00;3.00;;;;;;;;6277987;22;45336;-72
2023/10/30 15:59:44;;;;;;;;;4.33;2.00;;;;;;;;6278013;22;45296;-71
2023/10/30 16:02:11;;;;;;;;;4.00;2.00;;;;;;;;6277833;22;45241;-73
2023/10/30 16:04:36;;;;;;;;;2.00;2.00;;;;;;;;6276200;22;45302;-71
2023/10/30 16:07:02;;;;;;;;;2.00;2.00;;;;;;;;6278316;22;45093;-71
2023/10/30 16:09:27;;;;;;;;;2.00;2.00;;;;;;;;6276869;22;45677;-71
2023/10/30 16:11:52;;;;;;;;;4.00;1.00;;;;;;;;6278116;22;45358;-71
2023/10/30 16:14:18;;;;;;;;;2.00;2.00;;;;;;;;6277584;22;45240;-71
2023/10/30 16:16:43;;;;;;;;;7.00;7.00;;;;;;;;6249452;22;45293;-71
2023/10/30 16:19:08;;;;;;;;;2.00;2.00;;;;;;;;6277396;22;45227;-72
2023/10/30 16:21:33;;;;;;;;;4.33;2.00;;;;;;;;6277818;22;45135;-72
2023/10/30 16:23:58;;;;;;;;;3.00;2.00;;;;;;;;6277739;22;45420;-72
2023/10/30 16:26:23;;;;;;;;;2.00;2.00;;;;;;;;6250584;22;45183;-71
2023/10/30 16:28:49;;;;;;;;;6.67;4.00;;;;;;;;6277845;22;45192;-73
2023/10/30 16:31:14;;;;;;;;;4.00;4.00;;;;;;;;6277834;22;45208;-73
2023/10/30 16:33:39;;;;;;;;;4.00;4.00;;;;;;;;6277018;22;45278;-73
2023/10/30 16:36:05;;;;;;;;;3.00;3.00;;;;;;;;6278113;22;45539;-74
2023/10/30 16:38:30;;;;;;;;;4.00;4.00;;;;;;;;6277689;22;45318;-73
2023/10/30 16:40:55;;;;;;;;;2.00;2.00;;;;;;;;6278288;22;45043;-73
2023/10/30 16:43:20;;;;;;;;;3.33;3.33;;;;;;;;6277755;22;45243;-73
2023/10/30 16:45:45;;;;;;;;;3.00;2.00;;;;;;;;6251016;22;45264;-72
2023/10/30 16:48:12;;;;;;;;;3.33;3.00;;;;;;;;6279307;22;45173;-72
2023/10/30 16:50:37;;;;;;;;;5.00;5.00;;;;;;;;6278233;22;46110;-72
2023/10/30 16:53:02;;;;;;;;;3.00;3.00;;;;;;;;6277671;22;45243;-72
2023/10/30 16:55:27;;;;;;;;;4.00;4.00;;;;;;;;6277976;22;45389;-72
2023/10/30 16:57:52;;;;;;;;;3.00;3.00;;;;;;;;6277900;22;45498;-74
2023/10/30 17:00:18;;;;;;;;;5.33;5.33;;;;;;;;6277763;22;45401;-72
2023/10/30 17:02:43;;;;;;;;;4.33;4.33;;;;;;;;6276498;22;45212;-73
2023/10/30 17:05:08;;;;;;;;;2.67;2.00;;;;;;;;6277940;22;45177;-73
2023/10/30 17:07:34;;;;;;;;;5.33;4.00;;;;;;;;6277912;22;45487;-73
2023/10/30 17:09:59;;;;;;;;;4.00;4.00;;;;;;;;6277682;22;45201;-72
2023/10/30 17:12:24;;;;;;;;;7.00;6.00;;;;;;;;6277880;22;45228;-73
2023/10/30 17:14:53;;;;;;;;;6.00;6.00;;;;;;;;6278167;22;45108;-73
2023/10/30 17:17:19;;;;;;;;;6.00;5.00;;;;;;;;6275484;22;45410;-73
2023/10/30 17:19:44;;;;;;;;;5.67;5.67;;;;;;;;6248368;22;46862;-73
2023/10/30 17:22:09;;;;;;;;;6.67;6.67;;;;;;;;6278060;22;44670;-74
2023/10/30 17:24:34;;;;;;;;;7.33;7.00;;;;;;;;6277575;22;44588;-72
2023/10/30 17:26:59;;;;;;;;;4.33;4.00;;;;;;;;6278141;22;45129;-73
2023/10/30 17:29:24;;;;;;;;;9.75;9.75;;;;;;;;6277766;22;45125;-73
2023/10/30 17:31:49;;;;;;;;;8.25;8.00;;;;;;;;6278270;22;45293;-72
2023/10/30 17:34:15;;;;;;;;;9.00;7.33;;;;;;;;6276669;22;45178;-72
2023/10/30 17:36:40;;;;;;;;;12.50;11.25;;;;;;;;6249356;22;45614;-73
2023/10/30 17:39:06;;;;;;;;;21.25;20.00;;;;;;;;6276934;22;45417;-73
2023/10/30 17:41:32;;;;;;;;;30.50;26.00;;;;;;;;6277653;22;45571;-73
2023/10/30 17:43:57;;;;;;;;;42.50;33.50;;;;;;;;6277750;22;45616;-73
2023/10/30 17:46:22;;;;;;;;;32.50;31.00;;;;;;;;6249675;22;45430;-73
2023/10/30 17:48:47;;;;;;;;;48.50;40.50;;;;;;;;6276703;22;45234;-73
2023/10/30 17:51:12;;;;;;;;;96.25;86.00;;;;;;;;6277098;22;45320;-73
2023/10/30 17:53:37;;;;;;;;;76.75;63.50;;;;;;;;6277501;22;45280;-74
2023/10/30 17:56:03;;;;;;;;;77.00;62.50;;;;;;;;6277318;22;44815;-74
2023/10/30 17:58:28;;;;;;;;;32.75;31.75;;;;;;;;6249412;22;46226;-75
2023/10/30 18:00:54;;;;;;;;;48.00;39.25;;;;;;;;6277689;22;45264;-74
2023/10/30 18:03:19;;;;;;;;;47.50;35.75;;;;;;;;6248342;22;45210;-74
2023/10/30 18:05:44;;;;;;;;;28.25;25.25;;;;;;;;6277457;22;45549;-74
2023/10/30 18:08:09;;;;;;;;;66.75;51.50;;;;;;;;6277323;22;45267;-74
2023/10/30 18:10:35;;;;;;;;;37.00;31.75;;;;;;;;6279144;22;45229;-74
2023/10/30 18:13:00;;;;;;;;;24.25;23.00;;;;;;;;6249404;22;45126;-75
2023/10/30 18:15:26;;;;;;;;;27.75;24.75;;;;;;;;6276302;22;46221;-74
2023/10/30 18:17:53;;;;;;;;;19.00;17.50;;;;;;;;6277101;22;46052;-74
2023/10/30 18:20:18;;;;;;;;;13.75;12.00;;;;;;;;6277230;22;44696;-75
2023/10/30 18:22:43;;;;;;;;;18.00;17.25;;;;;;;;6277182;22;45247;-75
2023/10/30 18:25:09;;;;;;;;;21.25;21.00;;;;;;;;6277338;22;45341;-75
2023/10/30 18:27:34;;;;;;;;;6.00;6.00;;;;;;;;6248607;22;47011;-75
2023/10/30 18:29:59;;;;;;;;;8.00;7.50;;;;;;;;6277088;22;45200;-75
2023/10/30 18:32:24;;;;;;;;;8.67;7.33;;;;;;;;6277348;22;44769;-75
2023/10/30 18:34:50;;;;;;;;;7.67;7.00;;;;;;;;6277847;22;45148;-75
2023/10/30 18:37:15;;;;;;;;;24.50;23.00;;;;;;;;6278052;22;45241;-75
2023/10/30 18:39:40;;;;;;;;;14.40;12.20;;;;;;;;6278816;22;45263;-76
2023/10/30 18:42:05;;;;;;;;;9.00;7.67;;;;;;;;6278981;22;45296;-74
2023/10/30 18:44:30;;;;;;;;;33.25;26.50;;;;;;;;6250398;22;45975;-74
2023/10/30 18:46:56;;;;;;;;;14.50;11.50;;;;;;;;6278735;22;46255;-74
2023/10/30 18:49:21;;;;;;;;;13.33;11.33;;;;;;;;6278061;22;45375;-74
2023/10/30 18:51:46;;;;;;;;;18.50;16.50;;;;;;;;6277120;22;45274;-73
2023/10/30 18:54:11;;;;;;;;;25.50;18.00;;;;;;;;6278548;22;45555;-73
2023/10/30 18:56:37;;;;;;;;;28.75;24.00;;;;;;;;6278178;22;45224;-74
2023/10/30 18:59:03;;;;;;;;;13.25;12.00;;;;;;;;6278171;22;45256;-73
2023/10/30 19:01:28;;;;;;;;;17.00;16.25;;;;;;;;6250529;22;45300;-73
2023/10/30 19:03:53;;;;;;;;;12.50;12.50;;;;;;;;6277305;22;45260;-74
2023/10/30 19:06:19;;;;;;;;;9.50;9.50;;;;;;;;6278383;22;45617;-73
2023/10/30 19:08:44;;;;;;;;;16.75;16.00;;;;;;;;6277910;22;45216;-73
2023/10/30 19:11:10;;;;;;;;;37.75;32.50;;;;;;;;6278325;22;45223;-73
2023/10/30 19:13:35;;;;;;;;;31.25;27.25;;;;;;;;6277959;22;44905;-73
2023/10/30 19:16:00;;;;;;;;;41.25;33.25;;;;;;;;6278369;22;46005;-73
2023/10/30 19:18:26;;;;;;;;;33.25;31.50;;;;;;;;6277793;22;45192;-71
2023/10/30 19:20:53;;;;;;;;;28.00;22.50;;;;;;;;6250661;22;45194;-72
2023/10/30 19:23:19;;;;;;;;;11.00;10.75;;;;;;;;6277593;22;45473;-73
2023/10/30 19:25:44;;;;;;;;;11.33;9.67;;;;;;;;6278298;22;45497;-71
2023/10/30 19:28:09;;;;;;;;;29.00;24.25;;;;;;;;6277206;22;45158;-73
2023/10/30 19:30:34;;;;;;;;;34.50;32.50;;;;;;;;6278666;22;45306;-73
2023/10/30 19:33:00;;;;;;;;;48.25;40.00;;;;;;;;6277267;22;45462;-73
2023/10/30 19:35:25;;;;;;;;;11.25;9.00;;;;;;;;6278432;22;45362;-74
2023/10/30 19:37:50;;;;;;;;;29.75;25.50;;;;;;;;6279089;22;45133;-74
2023/10/30 19:40:15;;;;;;;;;44.00;38.00;;;;;;;;6279128;22;45338;-73
2023/10/30 19:42:41;;;;;;;;;42.50;35.00;;;;;;;;6277776;22;45177;-73
2023/10/30 19:45:06;;;;;;;;;27.75;21.50;;;;;;;;6277707;22;45439;-73
2023/10/30 19:47:31;;;;;;;;;18.50;16.25;;;;;;;;6277730;22;45272;-74
2023/10/30 19:49:56;;;;;;;;;17.25;16.00;;;;;;;;6278617;22;45417;-75
2023/10/30 19:52:22;;;;;;;;;8.00;7.00;;;;;;;;6277837;22;45414;-75
2023/10/30 19:54:47;;;;;;;;;16.75;15.75;;;;;;;;6249672;22;46946;-74
2023/10/30 19:57:12;;;;;;;;;19.50;15.25;;;;;;;;6277934;22;45280;-72
2023/10/30 19:59:37;;;;;;;;;15.00;13.25;;;;;;;;6278306;22;45249;-73
2023/10/30 20:02:02;;;;;;;;;34.75;32.00;;;;;;;;6277656;22;45221;-74
2023/10/30 20:04:28;;;;;;;;;28.25;27.00;;;;;;;;6277799;22;45302;-72
2023/10/30 20:06:53;;;;;;;;;30.00;28.00;;;;;;;;6278011;22;45234;-71
2023/10/30 20:09:18;;;;;;;;;14.25;10.25;;;;;;;;6277944;22;45271;-72
2023/10/30 20:11:43;;;;;;;;;36.50;32.00;;;;;;;;6249454;22;45561;-72
2023/10/30 20:14:08;;;;;;;;;23.00;21.75;;;;;;;;6277783;22;45977;-73
2023/10/30 20:16:33;;;;;;;;;21.50;20.50;;;;;;;;6249532;22;45255;-73
2023/10/30 20:18:59;;;;;;;;;21.25;21.25;;;;;;;;6279534;22;45340;-73
2023/10/30 20:21:24;;;;;;;;;10.50;8.75;;;;;;;;6280267;22;45327;-73
2023/10/30 20:23:49;;;;;;;;;12.00;11.25;;;;;;;;6280134;22;45297;-72
2023/10/30 20:26:18;;;;;;;;;15.75;13.75;;;;;;;;6278315;22;45447;-72
2023/10/30 20:28:43;;;;;;;;;7.00;7.00;;;;;;;;6277408;22;44601;-72
2023/10/30 20:31:09;;;;;;;;;20.00;17.00;;;;;;;;6277507;22;45156;-73
2023/10/30 20:33:35;;;;;;;;;16.00;15.00;;;;;;;;6276845;22;45512;-74
2023/10/30 20:36:00;;;;;;;;;15.25;12.75;;;;;;;;6276600;22;45145;-73
2023/10/30 20:38:25;;;;;;;;;17.00;16.50;;;;;;;;6278156;22;45351;-73
2023/10/30 20:40:50;;;;;;;;;27.50;24.50;;;;;;;;6277908;22;45490;-73
2023/10/30 20:43:19;;;;;;;;;29.75;24.75;;;;;;;;6277437;22;45292;-73
2023/10/30 20:45:45;;;;;;;;;31.25;25.25;;;;;;;;6277730;22;45221;-74
2023/10/30 20:48:11;;;;;;;;;13.50;13.25;;;;;;;;6277567;22;45236;-74
2023/10/30 20:50:37;;;;;;;;;13.00;9.50;;;;;;;;6277767;22;45323;-75
2023/10/30 20:53:04;;;;;;;;;9.25;7.00;;;;;;;;6249477;22;45304;-75
2023/10/30 20:55:29;;;;;;;;;11.00;9.25;;;;;;;;6277412;22;45361;-73
2023/10/30 20:57:55;;;;;;;;;18.00;16.50;;;;;;;;6279996;22;45205;-74
2023/10/30 21:00:20;;;;;;;;;15.50;12.50;;;;;;;;6282222;22;45304;-75
2023/10/30 21:02:45;;;;;;;;;12.00;9.50;;;;;;;;6281547;22;45330;-75
2023/10/30 21:05:11;;;;;;;;;11.75;11.50;;;;;;;;6282510;22;45236;-75
2023/10/30 21:07:36;;;;;;;;;21.25;20.25;;;;;;;;6253403;22;45276;-72
2023/10/30 21:10:02;;;;;;;;;16.25;10.75;;;;;;;;6277607;22;45145;-72
2023/10/30 21:12:28;;;;;;;;;14.00;13.75;;;;;;;;6276441;22;45294;-73
2023/10/30 21:14:54;;;;;;;;;21.25;17.25;;;;;;;;6277686;22;45432;-74
2023/10/30 21:17:19;;;;;;;;;9.50;9.50;;;;;;;;6275838;22;45200;-73
2023/10/30 21:19:45;;;;;;;;;12.75;12.75;;;;;;;;6277349;22;45164;-74
2023/10/30 21:22:10;;;;;;;;;17.00;17.00;;;;;;;;6249124;22;47674;-73
2023/10/30 21:24:35;;;;;;;;;19.50;18.25;;;;;;;;6277300;22;45239;-72
2023/10/30 21:27:00;;;;;;;;;15.50;14.50;;;;;;;;6277384;22;45268;-72
2023/10/30 21:29:25;;;;;;;;;14.00;12.75;;;;;;;;6277231;22;45259;-72
2023/10/30 21:31:51;;;;;;;;;17.25;14.50;;;;;;;;6277404;22;45331;-73
2023/10/30 21:34:16;;;;;;;;;18.25;15.75;;;;;;;;6276387;22;45365;-74
2023/10/30 21:36:41;;;;;;;;;15.50;14.00;;;;;;;;6277866;22;45168;-73
2023/10/30 21:39:07;;;;;;;;;19.25;17.50;;;;;;;;6276861;22;45504;-73
2023/10/30 21:41:32;;;;;;;;;16.50;15.50;;;;;;;;6253140;22;46091;-73
2023/10/30 21:43:59;;;;;;;;;20.75;18.50;;;;;;;;6280641;22;45177;-72
2023/10/30 21:46:24;;;;;;;;;14.75;14.00;;;;;;;;6254201;22;45146;-74
2023/10/30 21:48:49;;;;;;;;;16.25;15.00;;;;;;;;6281308;22;44755;-73
2023/10/30 21:51:15;;;;;;;;;17.25;15.25;;;;;;;;6278488;22;45299;-73
2023/10/30 21:53:40;;;;;;;;;12.75;11.75;;;;;;;;6277248;22;45197;-73
2023/10/30 21:56:05;;;;;;;;;12.75;12.25;;;;;;;;6276969;22;45098;-73